LSZL

Locarno Airport

Locarno, Switzerland
TAF LSZL 251725Z 2518/2603 27003KT 9999 FEW055 TEMPO 2518/2521 CAVOK
Issued Valid From Valid To
Sep-25 @ 17:25 UTC
(26 minutes ago)
Sep-25 @ 18:00 UTC
(in 9 minutes)
Sep-26 @ 03:00 UTC
(in 9 hours)
Sep-25 @ 18:00 to Sep-26 @ 03:00
TAF LSZL 251725Z 2518/2603 27003KT 9999 FEW055
Wind Visibility Clouds
270° at 3 knots 10,000+ meters
  • Few at 5,500' AGL
Temporary Sep-25 @ 18:00 to Sep-25 @ 21:00
TEMPO 2518/2521 CAVOK
Visibility Clouds Conditions
10,000+ meters
  • No significant clouds
TAF LSZL 251725Z 2518/2603 27003KT 9999 FEW055 TEMPO 2518/2521 CAVOK
Issued Sep-25 @ 17:25 UTC
(26 minutes ago)
Valid From Sep-25 @ 18:00 UTC
(in 9 minutes)
Valid To Sep-26 @ 03:00 UTC
(in 9 hours)
Sep-25 @ 18:00 - Sep-26 @ 03:00
Wind Visibility
270° at 3 knots 10,000+ meters
Clouds
  • Few at 5,500' AGL
Temporary Sep-25 @ 18:00 - Sep-25 @ 21:00
Clouds
  • No significant clouds
Conditions